RCH3812 ENOL-ETAR
Flight info
| Callsign | RCH3812 |
|---|---|
| Flight time | 2h 2m |
| Altitude | 38000 |
| Route | UVEPI DCT OSVIG M604 SVA M609 RASVI DCT TUSKA DCT MALYK DCT ASBON |
| Aircraft | K35R/H-SDFGHRWY/C |
Departure
| Time | 2026-04-20 15:59 |
|---|---|
| Airport | Ørland Airport (ENOL) |
Arrival
| Time | 2026-04-20 18:01 |
|---|---|
| Airport | Ramstein Air Base (ETAR) |
| Time | Latitude | Longitude | Altitude | Speed | Heading |
|---|---|---|---|---|---|
| 2026-04-20 15:44 | 63.70233 | 9.60908 | 33 ft | 0 kts | 292° |
| 2026-04-20 15:54 | 63.70263 | 9.60760 | 33 ft | 16 kts | 298° |
| 2026-04-20 15:54 | 63.70294 | 9.60529 | 32 ft | 11 kts | 258° |
| 2026-04-20 15:55 | 63.70276 | 9.60489 | 32 ft | 1 kts | 163° |
| 2026-04-20 15:55 | 63.70257 | 9.60502 | 33 ft | 4 kts | 163° |
| 2026-04-20 15:55 | 63.70220 | 9.60527 | 33 ft | 7 kts | 163° |
| 2026-04-20 15:55 | 63.70182 | 9.60565 | 33 ft | 9 kts | 150° |
| 2026-04-20 15:56 | 63.70069 | 9.60692 | 33 ft | 28 kts | 154° |
| 2026-04-20 15:56 | 63.69860 | 9.60925 | 34 ft | 34 kts | 153° |
| 2026-04-20 15:56 | 63.69650 | 9.61155 | 35 ft | 33 kts | 154° |
| 2026-04-20 15:56 | 63.69447 | 9.61380 | 36 ft | 32 kts | 154° |
| 2026-04-20 15:57 | 63.69247 | 9.61591 | 37 ft | 31 kts | 154° |
| 2026-04-20 15:57 | 63.69051 | 9.61799 | 38 ft | 31 kts | 154° |
| 2026-04-20 15:57 | 63.68856 | 9.61979 | 39 ft | 30 kts | 171° |
| 2026-04-20 15:57 | 63.68729 | 9.61900 | 39 ft | 14 kts | 249° |
| 2026-04-20 15:58 | 63.68712 | 9.61713 | 39 ft | 8 kts | 301° |
| 2026-04-20 15:58 | 63.68774 | 9.61627 | 39 ft | 40 kts | 333° |
| 2026-04-20 15:58 | 63.69451 | 9.60889 | 37 ft | 166 kts | 334° |
| 2026-04-20 15:58 | 63.70676 | 9.59554 | 404 ft | 210 kts | 334° |
| 2026-04-20 15:59 | 63.71946 | 9.58175 | 1802 ft | 186 kts | 334° |
| 2026-04-20 15:59 | 63.73018 | 9.56781 | 2258 ft | 203 kts | 311° |
| 2026-04-20 15:59 | 63.73592 | 9.53598 | 3004 ft | 233 kts | 271° |
| 2026-04-20 15:59 | 63.73191 | 9.50137 | 4430 ft | 231 kts | 239° |
| 2026-04-20 16:00 | 63.72006 | 9.47678 | 5672 ft | 251 kts | 208° |
| 2026-04-20 16:00 | 63.70229 | 9.46667 | 7097 ft | 272 kts | 189° |
| 2026-04-20 16:00 | 63.68331 | 9.46172 | 8862 ft | 279 kts | 191° |
| 2026-04-20 16:00 | 63.66399 | 9.45270 | 10379 ft | 293 kts | 200° |
| 2026-04-20 16:01 | 63.64425 | 9.43533 | 11492 ft | 318 kts | 208° |
| 2026-04-20 16:01 | 63.62351 | 9.41283 | 12500 ft | 345 kts | 208° |
| 2026-04-20 16:01 | 63.60083 | 9.39038 | 13647 ft | 362 kts | 205° |
| 2026-04-20 16:01 | 63.57726 | 9.36935 | 15160 ft | 369 kts | 205° |
| 2026-04-20 16:02 | 63.55357 | 9.34769 | 16480 ft | 376 kts | 206° |
| 2026-04-20 16:02 | 63.52925 | 9.32452 | 17787 ft | 383 kts | 206° |
| 2026-04-20 16:02 | 63.50445 | 9.30102 | 18998 ft | 391 kts | 206° |
| 2026-04-20 16:02 | 63.47901 | 9.27742 | 20154 ft | 399 kts | 206° |
| 2026-04-20 16:03 | 63.45310 | 9.25348 | 21274 ft | 406 kts | 206° |
| 2026-04-20 16:03 | 63.42674 | 9.22922 | 22288 ft | 414 kts | 204° |
| 2026-04-20 16:03 | 63.39840 | 9.21320 | 23208 ft | 427 kts | 191° |
| 2026-04-20 16:03 | 63.36832 | 9.21049 | 24116 ft | 438 kts | 182° |
| 2026-04-20 16:04 | 63.33760 | 9.21287 | 24974 ft | 445 kts | 181° |
| 2026-04-20 16:04 | 63.30641 | 9.21602 | 25802 ft | 452 kts | 181° |
| 2026-04-20 16:04 | 63.27476 | 9.21908 | 26598 ft | 459 kts | 181° |
| 2026-04-20 16:04 | 63.24306 | 9.22169 | 27361 ft | 465 kts | 181° |
| 2026-04-20 16:05 | 63.21048 | 9.22436 | 28120 ft | 471 kts | 181° |
| 2026-04-20 16:05 | 63.17752 | 9.22733 | 28893 ft | 477 kts | 181° |
| 2026-04-20 16:05 | 63.14414 | 9.23036 | 29611 ft | 484 kts | 181° |
| 2026-04-20 16:05 | 63.11026 | 9.23329 | 30301 ft | 490 kts | 181° |
| 2026-04-20 16:06 | 63.07610 | 9.23620 | 31096 ft | 493 kts | 181° |
| 2026-04-20 16:06 | 63.04188 | 9.23919 | 32013 ft | 491 kts | 181° |
| 2026-04-20 16:06 | 63.00785 | 9.24220 | 32913 ft | 489 kts | 181° |
| 2026-04-20 16:06 | 62.97378 | 9.24512 | 33708 ft | 490 kts | 181° |
| 2026-04-20 16:07 | 62.93979 | 9.24801 | 34515 ft | 489 kts | 181° |
| 2026-04-20 16:07 | 62.90576 | 9.25094 | 35278 ft | 489 kts | 181° |
| 2026-04-20 16:07 | 62.87188 | 9.25389 | 36109 ft | 486 kts | 181° |
| 2026-04-20 16:07 | 62.83821 | 9.25677 | 36885 ft | 484 kts | 181° |
| 2026-04-20 16:08 | 62.80501 | 9.25957 | 37506 ft | 485 kts | 181° |
| 2026-04-20 16:08 | 62.77113 | 9.26242 | 37983 ft | 489 kts | 181° |
| 2026-04-20 16:08 | 62.70239 | 9.26830 | 38039 ft | 492 kts | 181° |
| 2026-04-20 16:09 | 62.63449 | 9.27406 | 38043 ft | 485 kts | 181° |
| 2026-04-20 16:09 | 62.56694 | 9.27969 | 38041 ft | 484 kts | 181° |
| 2026-04-20 16:10 | 62.49978 | 9.28533 | 38042 ft | 487 kts | 181° |
| 2026-04-20 16:10 | 62.43179 | 9.29098 | 38043 ft | 490 kts | 181° |
| 2026-04-20 16:11 | 62.36389 | 9.29665 | 38043 ft | 488 kts | 181° |
| 2026-04-20 16:11 | 62.29584 | 9.30223 | 38039 ft | 490 kts | 181° |
| 2026-04-20 16:12 | 62.22789 | 9.30786 | 38039 ft | 488 kts | 181° |
| 2026-04-20 16:12 | 62.16047 | 9.31292 | 38043 ft | 485 kts | 185° |
| 2026-04-20 16:13 | 62.09481 | 9.29453 | 38054 ft | 478 kts | 195° |
| 2026-04-20 16:13 | 62.02917 | 9.26829 | 38057 ft | 482 kts | 191° |
| 2026-04-20 16:14 | 61.96267 | 9.25228 | 38055 ft | 478 kts | 192° |
| 2026-04-20 16:14 | 61.89686 | 9.23072 | 38055 ft | 483 kts | 192° |
| 2026-04-20 16:15 | 61.83043 | 9.21232 | 38049 ft | 477 kts | 192° |
| 2026-04-20 16:15 | 61.76433 | 9.19235 | 38051 ft | 480 kts | 192° |
| 2026-04-20 16:16 | 61.69816 | 9.17333 | 38053 ft | 479 kts | 192° |
| 2026-04-20 16:16 | 61.63253 | 9.15414 | 38050 ft | 482 kts | 192° |
| 2026-04-20 16:17 | 61.56594 | 9.13491 | 38054 ft | 482 kts | 191° |
| 2026-04-20 16:17 | 61.49945 | 9.11578 | 38044 ft | 480 kts | 192° |
| 2026-04-20 16:18 | 61.43311 | 9.09670 | 38045 ft | 482 kts | 192° |
| 2026-04-20 16:18 | 61.36665 | 9.07777 | 38045 ft | 483 kts | 192° |
| 2026-04-20 16:19 | 61.30076 | 9.05902 | 38045 ft | 480 kts | 192° |
| 2026-04-20 16:19 | 61.23446 | 9.04024 | 38045 ft | 481 kts | 192° |
| 2026-04-20 16:20 | 61.16827 | 9.02160 | 38046 ft | 479 kts | 192° |
| 2026-04-20 16:20 | 61.10228 | 9.00306 | 38046 ft | 479 kts | 192° |
| 2026-04-20 16:21 | 61.03709 | 8.98485 | 38044 ft | 478 kts | 192° |
| 2026-04-20 16:21 | 60.97135 | 8.96652 | 38043 ft | 480 kts | 192° |
| 2026-04-20 16:22 | 60.90508 | 8.94818 | 38045 ft | 481 kts | 192° |
| 2026-04-20 16:22 | 60.83875 | 8.92983 | 38048 ft | 481 kts | 192° |
| 2026-04-20 16:23 | 60.77231 | 8.91159 | 38048 ft | 481 kts | 192° |
| 2026-04-20 16:23 | 60.70614 | 8.89348 | 38048 ft | 478 kts | 192° |
| 2026-04-20 16:24 | 60.64026 | 8.87549 | 38045 ft | 479 kts | 192° |
| 2026-04-20 16:24 | 60.57404 | 8.85752 | 38046 ft | 480 kts | 191° |
| 2026-04-20 16:25 | 60.50825 | 8.83974 | 38045 ft | 480 kts | 192° |
| 2026-04-20 16:25 | 60.44196 | 8.82187 | 38048 ft | 481 kts | 191° |
| 2026-04-20 16:26 | 60.37572 | 8.80411 | 38047 ft | 481 kts | 191° |
| 2026-04-20 16:26 | 60.30929 | 8.78637 | 38048 ft | 480 kts | 191° |
| 2026-04-20 16:27 | 60.24310 | 8.76878 | 38047 ft | 478 kts | 191° |
| 2026-04-20 16:27 | 60.17729 | 8.75129 | 38043 ft | 483 kts | 191° |
| 2026-04-20 16:28 | 60.11072 | 8.73379 | 38048 ft | 481 kts | 191° |
| 2026-04-20 16:28 | 60.04458 | 8.71638 | 38046 ft | 478 kts | 191° |
| 2026-04-20 16:29 | 59.97856 | 8.69910 | 38045 ft | 478 kts | 191° |
| 2026-04-20 16:29 | 59.91255 | 8.68189 | 38044 ft | 480 kts | 191° |
| 2026-04-20 16:30 | 59.84638 | 8.66473 | 38037 ft | 479 kts | 191° |
| 2026-04-20 16:30 | 59.77995 | 8.64753 | 38047 ft | 480 kts | 191° |
| 2026-04-20 16:31 | 59.71421 | 8.63062 | 38046 ft | 479 kts | 191° |
| 2026-04-20 16:31 | 59.64814 | 8.61366 | 38045 ft | 478 kts | 191° |
| 2026-04-20 16:32 | 59.58231 | 8.59685 | 38045 ft | 476 kts | 191° |
| 2026-04-20 16:32 | 59.51651 | 8.58008 | 38041 ft | 479 kts | 191° |
| 2026-04-20 16:33 | 59.45029 | 8.56332 | 38049 ft | 477 kts | 191° |
| 2026-04-20 16:33 | 59.38448 | 8.54668 | 38047 ft | 478 kts | 191° |
| 2026-04-20 16:34 | 59.31870 | 8.53015 | 38043 ft | 477 kts | 191° |
| 2026-04-20 16:34 | 59.25290 | 8.51366 | 38048 ft | 476 kts | 191° |
| 2026-04-20 16:35 | 59.18720 | 8.49726 | 38046 ft | 476 kts | 191° |
| 2026-04-20 16:35 | 59.12165 | 8.48097 | 38043 ft | 474 kts | 191° |
| 2026-04-20 16:36 | 59.05651 | 8.46481 | 38043 ft | 477 kts | 191° |
| 2026-04-20 16:36 | 58.99061 | 8.44858 | 38046 ft | 478 kts | 191° |
| 2026-04-20 16:37 | 58.92438 | 8.43230 | 38044 ft | 476 kts | 191° |
| 2026-04-20 16:37 | 58.85866 | 8.41620 | 38043 ft | 476 kts | 191° |
| 2026-04-20 16:38 | 58.79346 | 8.40032 | 38044 ft | 475 kts | 191° |
| 2026-04-20 16:38 | 58.72868 | 8.38456 | 38044 ft | 476 kts | 191° |
| 2026-04-20 16:39 | 58.66306 | 8.36869 | 38045 ft | 475 kts | 191° |
| 2026-04-20 16:39 | 58.59735 | 8.35284 | 38047 ft | 476 kts | 191° |
| 2026-04-20 16:40 | 58.53170 | 8.33707 | 38045 ft | 475 kts | 191° |
| 2026-04-20 16:40 | 58.46618 | 8.32138 | 38044 ft | 474 kts | 191° |
| 2026-04-20 16:41 | 58.40071 | 8.30576 | 38048 ft | 476 kts | 191° |
| 2026-04-20 16:41 | 58.33546 | 8.29030 | 38048 ft | 475 kts | 191° |
| 2026-04-20 16:42 | 58.26987 | 8.27476 | 38049 ft | 474 kts | 191° |
| 2026-04-20 16:42 | 58.20433 | 8.25932 | 38049 ft | 475 kts | 191° |
| 2026-04-20 16:43 | 58.13889 | 8.24394 | 38048 ft | 473 kts | 191° |
| 2026-04-20 16:43 | 58.07356 | 8.22866 | 38046 ft | 472 kts | 191° |
| 2026-04-20 16:44 | 58.00883 | 8.21356 | 38043 ft | 472 kts | 191° |
| 2026-04-20 16:44 | 57.94349 | 8.19837 | 38045 ft | 474 kts | 191° |
| 2026-04-20 16:45 | 57.87795 | 8.18321 | 38048 ft | 475 kts | 191° |
| 2026-04-20 16:45 | 57.82338 | 8.17062 | 38051 ft | 476 kts | 191° |
| 2026-04-20 16:46 | 57.75772 | 8.15554 | 38052 ft | 474 kts | 191° |
| 2026-04-20 16:46 | 57.69232 | 8.14055 | 38048 ft | 473 kts | 191° |
| 2026-04-20 16:47 | 57.62710 | 8.12566 | 38044 ft | 471 kts | 191° |
| 2026-04-20 16:47 | 57.56237 | 8.11093 | 38043 ft | 473 kts | 191° |
| 2026-04-20 16:48 | 57.49697 | 8.09612 | 38046 ft | 474 kts | 191° |
| 2026-04-20 16:48 | 57.43140 | 8.08131 | 38049 ft | 475 kts | 191° |
| 2026-04-20 16:49 | 57.36568 | 8.06653 | 38052 ft | 476 kts | 191° |
| 2026-04-20 16:49 | 57.30010 | 8.05184 | 38052 ft | 474 kts | 191° |
| 2026-04-20 16:50 | 57.23453 | 8.04492 | 38050 ft | 475 kts | 186° |
| 2026-04-20 16:50 | 57.16853 | 8.03988 | 38048 ft | 474 kts | 187° |
| 2026-04-20 16:51 | 57.10258 | 8.03445 | 38048 ft | 475 kts | 186° |
| 2026-04-20 16:51 | 57.03636 | 8.02930 | 38051 ft | 477 kts | 187° |
| 2026-04-20 16:52 | 56.96998 | 8.02398 | 38054 ft | 478 kts | 187° |
| 2026-04-20 16:52 | 56.90403 | 8.01882 | 38055 ft | 477 kts | 187° |
| 2026-04-20 16:53 | 56.83783 | 8.01360 | 38053 ft | 476 kts | 187° |
| 2026-04-20 16:53 | 56.77177 | 8.00843 | 38050 ft | 475 kts | 187° |
| 2026-04-20 16:54 | 56.70586 | 8.00328 | 38047 ft | 474 kts | 187° |
| 2026-04-20 16:54 | 56.64043 | 7.99819 | 38046 ft | 474 kts | 187° |
| 2026-04-20 16:55 | 56.57438 | 7.99307 | 38049 ft | 476 kts | 187° |
| 2026-04-20 16:55 | 56.50921 | 7.98804 | 38052 ft | 477 kts | 186° |
| 2026-04-20 16:56 | 56.44282 | 7.98293 | 38056 ft | 478 kts | 186° |
| 2026-04-20 16:56 | 56.37649 | 7.97785 | 38055 ft | 476 kts | 187° |
| 2026-04-20 16:57 | 56.31037 | 7.97279 | 38053 ft | 475 kts | 187° |
| 2026-04-20 16:57 | 56.24482 | 7.96780 | 38050 ft | 474 kts | 187° |
| 2026-04-20 16:58 | 56.17895 | 7.96280 | 38047 ft | 473 kts | 187° |
| 2026-04-20 16:58 | 56.11305 | 7.95781 | 38047 ft | 475 kts | 187° |
| 2026-04-20 16:59 | 56.04695 | 7.95283 | 38050 ft | 476 kts | 186° |
| 2026-04-20 16:59 | 55.98060 | 7.94784 | 38054 ft | 478 kts | 186° |
| 2026-04-20 17:00 | 55.88152 | 7.94044 | 38056 ft | 476 kts | 186° |
| 2026-04-20 17:01 | 55.81536 | 7.93550 | 38054 ft | 475 kts | 186° |
| 2026-04-20 17:01 | 55.74935 | 7.93061 | 38051 ft | 474 kts | 186° |
| 2026-04-20 17:02 | 55.68348 | 7.92570 | 38048 ft | 474 kts | 186° |
| 2026-04-20 17:02 | 55.61764 | 7.92090 | 38046 ft | 473 kts | 187° |
| 2026-04-20 17:03 | 55.55217 | 7.91604 | 38048 ft | 475 kts | 186° |
| 2026-04-20 17:03 | 55.48604 | 7.91123 | 38051 ft | 476 kts | 186° |
| 2026-04-20 17:04 | 55.41981 | 7.90638 | 38054 ft | 477 kts | 186° |
| 2026-04-20 17:04 | 55.35343 | 7.90156 | 38057 ft | 477 kts | 186° |
| 2026-04-20 17:05 | 55.28719 | 7.89676 | 38056 ft | 476 kts | 186° |
| 2026-04-20 17:05 | 55.22156 | 7.89201 | 38053 ft | 474 kts | 186° |
| 2026-04-20 17:06 | 55.15568 | 7.88727 | 38049 ft | 473 kts | 186° |
| 2026-04-20 17:06 | 55.08988 | 7.88253 | 38047 ft | 474 kts | 186° |
| 2026-04-20 17:07 | 55.02389 | 7.87781 | 38049 ft | 475 kts | 186° |
| 2026-04-20 17:07 | 54.95819 | 7.87292 | 38052 ft | 476 kts | 187° |
| 2026-04-20 17:08 | 54.89195 | 7.86744 | 38056 ft | 477 kts | 187° |
| 2026-04-20 17:08 | 54.82559 | 7.86232 | 38054 ft | 477 kts | 187° |
| 2026-04-20 17:09 | 54.75946 | 7.85704 | 38052 ft | 475 kts | 187° |
| 2026-04-20 17:09 | 54.69357 | 7.85189 | 38048 ft | 473 kts | 187° |
| 2026-04-20 17:10 | 54.62779 | 7.84671 | 38045 ft | 474 kts | 187° |
| 2026-04-20 17:10 | 54.56228 | 7.84160 | 38047 ft | 475 kts | 187° |
| 2026-04-20 17:11 | 54.49618 | 7.83645 | 38049 ft | 476 kts | 187° |
| 2026-04-20 17:11 | 54.42999 | 7.83132 | 38052 ft | 476 kts | 187° |
| 2026-04-20 17:12 | 54.36387 | 7.82621 | 38051 ft | 475 kts | 187° |
| 2026-04-20 17:12 | 54.29791 | 7.82112 | 38049 ft | 474 kts | 187° |
| 2026-04-20 17:13 | 54.23208 | 7.81606 | 38047 ft | 474 kts | 187° |
| 2026-04-20 17:13 | 54.16670 | 7.81105 | 38045 ft | 473 kts | 187° |
| 2026-04-20 17:14 | 54.10097 | 7.80603 | 38043 ft | 473 kts | 187° |
| 2026-04-20 17:14 | 54.03533 | 7.80103 | 38042 ft | 472 kts | 187° |
| 2026-04-20 17:15 | 53.96955 | 7.79603 | 38044 ft | 474 kts | 187° |
| 2026-04-20 17:15 | 53.90356 | 7.79104 | 38047 ft | 475 kts | 187° |
| 2026-04-20 17:16 | 53.83783 | 7.78609 | 38051 ft | 476 kts | 187° |
| 2026-04-20 17:16 | 53.77162 | 7.78112 | 38053 ft | 476 kts | 187° |
| 2026-04-20 17:17 | 53.70555 | 7.77616 | 38052 ft | 475 kts | 187° |
| 2026-04-20 17:17 | 53.63965 | 7.77124 | 38049 ft | 474 kts | 187° |
| 2026-04-20 17:18 | 53.57386 | 7.76634 | 38046 ft | 473 kts | 187° |
| 2026-04-20 17:18 | 53.50817 | 7.76146 | 38044 ft | 472 kts | 187° |
| 2026-04-20 17:19 | 53.44288 | 7.75662 | 38044 ft | 474 kts | 187° |
| 2026-04-20 17:19 | 53.37689 | 7.75176 | 38048 ft | 475 kts | 187° |
| 2026-04-20 17:20 | 53.31071 | 7.74689 | 38052 ft | 477 kts | 187° |
| 2026-04-20 17:20 | 53.24452 | 7.74204 | 38053 ft | 475 kts | 187° |
| 2026-04-20 17:21 | 53.17893 | 7.73724 | 38052 ft | 474 kts | 187° |
| 2026-04-20 17:21 | 53.11304 | 7.73244 | 38049 ft | 473 kts | 187° |
| 2026-04-20 17:22 | 53.04727 | 7.72766 | 38046 ft | 473 kts | 187° |
| 2026-04-20 17:22 | 52.98162 | 7.72291 | 38044 ft | 472 kts | 187° |
| 2026-04-20 17:23 | 52.91606 | 7.71766 | 38042 ft | 472 kts | 187° |
| 2026-04-20 17:23 | 52.85033 | 7.71245 | 38044 ft | 474 kts | 187° |
| 2026-04-20 17:24 | 52.78486 | 7.70731 | 38048 ft | 475 kts | 187° |
| 2026-04-20 17:24 | 52.71872 | 7.70208 | 38052 ft | 476 kts | 187° |
| 2026-04-20 17:25 | 52.65267 | 7.69693 | 38052 ft | 474 kts | 187° |
| 2026-04-20 17:25 | 52.58679 | 7.69176 | 38050 ft | 473 kts | 187° |
| 2026-04-20 17:26 | 52.52150 | 7.68669 | 38047 ft | 472 kts | 187° |
| 2026-04-20 17:26 | 52.45590 | 7.68158 | 38044 ft | 472 kts | 187° |
| 2026-04-20 17:27 | 52.39019 | 7.67648 | 38045 ft | 474 kts | 187° |
| 2026-04-20 17:27 | 52.32424 | 7.67139 | 38048 ft | 475 kts | 187° |
| 2026-04-20 17:28 | 52.25812 | 7.66630 | 38052 ft | 475 kts | 187° |
| 2026-04-20 17:28 | 52.19215 | 7.66124 | 38051 ft | 474 kts | 187° |
| 2026-04-20 17:29 | 52.12693 | 7.65627 | 38017 ft | 465 kts | 187° |
| 2026-04-20 17:29 | 52.06226 | 7.65125 | 38034 ft | 477 kts | 187° |
| 2026-04-20 17:29 | 52.02860 | 7.64862 | 38050 ft | 491 kts | 187° |
| 2026-04-20 17:30 | 51.99416 | 7.64608 | 38046 ft | 499 kts | 186° |
| 2026-04-20 17:30 | 51.92447 | 7.64086 | 38049 ft | 502 kts | 187° |
| 2026-04-20 17:31 | 51.85462 | 7.63553 | 38045 ft | 502 kts | 186° |
| 2026-04-20 17:31 | 51.78498 | 7.63032 | 38047 ft | 501 kts | 187° |
| 2026-04-20 17:32 | 51.71585 | 7.62510 | 38045 ft | 500 kts | 187° |
| 2026-04-20 17:32 | 51.64631 | 7.61990 | 38044 ft | 500 kts | 187° |
| 2026-04-20 17:33 | 51.57685 | 7.61470 | 38044 ft | 500 kts | 187° |
| 2026-04-20 17:33 | 51.50731 | 7.60953 | 38044 ft | 500 kts | 187° |
| 2026-04-20 17:34 | 51.43775 | 7.60435 | 38045 ft | 501 kts | 186° |
| 2026-04-20 17:34 | 51.36814 | 7.59921 | 38044 ft | 501 kts | 186° |
| 2026-04-20 17:35 | 51.29848 | 7.59405 | 38046 ft | 503 kts | 186° |
| 2026-04-20 17:35 | 51.22903 | 7.58895 | 38047 ft | 503 kts | 186° |
| 2026-04-20 17:36 | 51.15918 | 7.58383 | 38042 ft | 502 kts | 186° |
| 2026-04-20 17:36 | 51.08838 | 7.57865 | 38043 ft | 503 kts | 186° |
| 2026-04-20 17:37 | 51.01931 | 7.57362 | 38045 ft | 503 kts | 186° |
| 2026-04-20 17:37 | 50.94945 | 7.56854 | 38045 ft | 502 kts | 186° |
| 2026-04-20 17:38 | 50.87962 | 7.56347 | 38044 ft | 502 kts | 186° |
| 2026-04-20 17:38 | 50.84502 | 7.56100 | 38038 ft | 491 kts | 186° |
| 2026-04-20 17:38 | 50.81134 | 7.55862 | 38028 ft | 478 kts | 187° |
| 2026-04-20 17:39 | 50.74587 | 7.55381 | 38021 ft | 470 kts | 187° |
| 2026-04-20 17:39 | 50.68256 | 7.53545 | 38043 ft | 466 kts | 199° |
| 2026-04-20 17:39 | 50.65156 | 7.52262 | 38034 ft | 453 kts | 199° |
| 2026-04-20 17:40 | 50.62170 | 7.51023 | 38007 ft | 435 kts | 199° |
| 2026-04-20 17:40 | 50.59293 | 7.49842 | 37768 ft | 422 kts | 199° |
| 2026-04-20 17:40 | 50.56388 | 7.48642 | 36182 ft | 444 kts | 199° |
| 2026-04-20 17:40 | 50.53369 | 7.47396 | 35291 ft | 448 kts | 199° |
| 2026-04-20 17:41 | 50.50363 | 7.46176 | 34418 ft | 448 kts | 198° |
| 2026-04-20 17:41 | 50.47293 | 7.45213 | 33472 ft | 453 kts | 192° |
| 2026-04-20 17:41 | 50.44156 | 7.44591 | 32491 ft | 455 kts | 190° |
| 2026-04-20 17:41 | 50.40995 | 7.44115 | 31447 ft | 457 kts | 189° |
| 2026-04-20 17:42 | 50.37820 | 7.43692 | 30300 ft | 460 kts | 188° |
| 2026-04-20 17:42 | 50.34618 | 7.43283 | 29103 ft | 463 kts | 188° |
| 2026-04-20 17:42 | 50.31445 | 7.42882 | 27863 ft | 465 kts | 188° |
| 2026-04-20 17:42 | 50.28213 | 7.42471 | 26584 ft | 466 kts | 188° |
| 2026-04-20 17:43 | 50.25000 | 7.42063 | 25601 ft | 460 kts | 188° |
| 2026-04-20 17:43 | 50.21834 | 7.41663 | 24609 ft | 453 kts | 188° |
| 2026-04-20 17:43 | 50.18719 | 7.41270 | 23621 ft | 446 kts | 188° |
| 2026-04-20 17:43 | 50.15668 | 7.40885 | 23048 ft | 432 kts | 188° |
| 2026-04-20 17:44 | 50.12709 | 7.40513 | 23050 ft | 429 kts | 188° |
| 2026-04-20 17:44 | 50.09693 | 7.40127 | 23057 ft | 437 kts | 188° |
| 2026-04-20 17:44 | 50.06658 | 7.39736 | 23054 ft | 440 kts | 188° |
| 2026-04-20 17:44 | 50.03608 | 7.39340 | 23057 ft | 440 kts | 188° |
| 2026-04-20 17:45 | 50.00556 | 7.38944 | 23054 ft | 440 kts | 188° |
| 2026-04-20 17:45 | 49.97544 | 7.38550 | 23056 ft | 440 kts | 188° |
| 2026-04-20 17:45 | 49.94491 | 7.38152 | 23052 ft | 439 kts | 188° |
| 2026-04-20 17:45 | 49.91488 | 7.37765 | 22089 ft | 434 kts | 188° |
| 2026-04-20 17:46 | 49.88542 | 7.37385 | 21754 ft | 407 kts | 188° |
| 2026-04-20 17:46 | 49.85738 | 7.37038 | 21013 ft | 401 kts | 188° |
| 2026-04-20 17:46 | 49.82978 | 7.36695 | 20235 ft | 396 kts | 188° |
| 2026-04-20 17:46 | 49.80248 | 7.36348 | 19447 ft | 391 kts | 188° |
| 2026-04-20 17:47 | 49.77563 | 7.36003 | 18603 ft | 379 kts | 188° |
| 2026-04-20 17:47 | 49.74982 | 7.35581 | 16714 ft | 380 kts | 195° |
| 2026-04-20 17:47 | 49.72474 | 7.34518 | 16148 ft | 366 kts | 200° |
| 2026-04-20 17:47 | 49.70082 | 7.33280 | 15540 ft | 355 kts | 202° |
| 2026-04-20 17:48 | 49.67879 | 7.32080 | 14946 ft | 321 kts | 203° |
| 2026-04-20 17:48 | 49.65859 | 7.30971 | 14224 ft | 296 kts | 203° |
| 2026-04-20 17:48 | 49.63997 | 7.29953 | 13545 ft | 275 kts | 203° |
| 2026-04-20 17:48 | 49.62208 | 7.28973 | 13005 ft | 274 kts | 203° |
| 2026-04-20 17:49 | 49.60421 | 7.27993 | 12479 ft | 272 kts | 203° |
| 2026-04-20 17:49 | 49.58642 | 7.27010 | 11926 ft | 271 kts | 203° |
| 2026-04-20 17:49 | 49.56876 | 7.26028 | 11389 ft | 270 kts | 203° |
| 2026-04-20 17:49 | 49.55113 | 7.25036 | 10856 ft | 269 kts | 203° |
| 2026-04-20 17:50 | 49.53371 | 7.24048 | 10266 ft | 262 kts | 203° |
| 2026-04-20 17:50 | 49.51656 | 7.23074 | 9203 ft | 263 kts | 203° |
| 2026-04-20 17:50 | 49.49961 | 7.22105 | 8277 ft | 257 kts | 203° |
| 2026-04-20 17:50 | 49.48300 | 7.21150 | 7336 ft | 253 kts | 203° |
| 2026-04-20 17:51 | 49.46663 | 7.20203 | 6418 ft | 249 kts | 203° |
| 2026-04-20 17:51 | 49.45079 | 7.19270 | 5730 ft | 247 kts | 203° |
| 2026-04-20 17:51 | 49.43565 | 7.18365 | 5463 ft | 226 kts | 203° |
| 2026-04-20 17:51 | 49.42128 | 7.17504 | 5026 ft | 215 kts | 203° |
| 2026-04-20 17:52 | 49.40747 | 7.16667 | 4962 ft | 219 kts | 203° |
| 2026-04-20 17:52 | 49.39329 | 7.15803 | 4956 ft | 221 kts | 203° |
| 2026-04-20 17:52 | 49.37894 | 7.14925 | 4961 ft | 222 kts | 203° |
| 2026-04-20 17:52 | 49.36454 | 7.14041 | 4950 ft | 223 kts | 203° |
| 2026-04-20 17:53 | 49.35013 | 7.13155 | 4948 ft | 223 kts | 205° |
| 2026-04-20 17:53 | 49.33817 | 7.11700 | 4952 ft | 222 kts | 237° |
| 2026-04-20 17:53 | 49.33372 | 7.09473 | 4954 ft | 223 kts | 270° |
| 2026-04-20 17:53 | 49.33830 | 7.07231 | 4952 ft | 226 kts | 303° |
| 2026-04-20 17:54 | 49.35048 | 7.05741 | 4952 ft | 229 kts | 337° |
| 2026-04-20 17:54 | 49.36630 | 7.05520 | 4953 ft | 234 kts | 10° |
| 2026-04-20 17:54 | 49.38061 | 7.06663 | 4953 ft | 236 kts | 43° |
| 2026-04-20 17:54 | 49.38909 | 7.08716 | 4948 ft | 230 kts | 71° |
| 2026-04-20 17:55 | 49.39258 | 7.11093 | 4955 ft | 227 kts | 81° |
| 2026-04-20 17:55 | 49.39387 | 7.13491 | 4949 ft | 221 kts | 86° |
| 2026-04-20 17:55 | 49.39553 | 7.15809 | 4940 ft | 218 kts | 83° |
| 2026-04-20 17:55 | 49.39754 | 7.18103 | 4935 ft | 216 kts | 83° |
| 2026-04-20 17:56 | 49.39953 | 7.20357 | 4944 ft | 205 kts | 83° |
| 2026-04-20 17:56 | 49.40144 | 7.22517 | 4941 ft | 205 kts | 83° |
| 2026-04-20 17:56 | 49.40335 | 7.24678 | 4888 ft | 206 kts | 83° |
| 2026-04-20 17:56 | 49.40516 | 7.26730 | 4656 ft | 186 kts | 83° |
| 2026-04-20 17:57 | 49.40688 | 7.28675 | 4425 ft | 181 kts | 83° |
| 2026-04-20 17:57 | 49.40854 | 7.30551 | 4192 ft | 179 kts | 83° |
| 2026-04-20 17:57 | 49.41020 | 7.32432 | 3962 ft | 177 kts | 83° |
| 2026-04-20 17:57 | 49.41185 | 7.34306 | 3738 ft | 176 kts | 83° |
| 2026-04-20 17:58 | 49.41349 | 7.36161 | 3511 ft | 174 kts | 83° |
| 2026-04-20 17:58 | 49.41507 | 7.37956 | 3282 ft | 165 kts | 83° |
| 2026-04-20 17:58 | 49.41661 | 7.39692 | 3060 ft | 163 kts | 84° |
| 2026-04-20 17:58 | 49.41808 | 7.41399 | 2844 ft | 160 kts | 84° |
| 2026-04-20 17:59 | 49.41953 | 7.43084 | 2640 ft | 159 kts | 84° |
| 2026-04-20 17:59 | 49.42101 | 7.44757 | 2430 ft | 158 kts | 84° |
| 2026-04-20 17:59 | 49.42247 | 7.46416 | 2233 ft | 156 kts | 83° |
| 2026-04-20 17:59 | 49.42393 | 7.48067 | 2037 ft | 156 kts | 83° |
| 2026-04-20 18:00 | 49.42538 | 7.49713 | 1829 ft | 155 kts | 83° |
| 2026-04-20 18:00 | 49.42683 | 7.51356 | 1626 ft | 155 kts | 83° |
| 2026-04-20 18:00 | 49.42827 | 7.52994 | 1423 ft | 154 kts | 83° |
| 2026-04-20 18:00 | 49.42967 | 7.54634 | 1221 ft | 154 kts | 83° |
| 2026-04-20 18:01 | 49.43109 | 7.56255 | 1020 ft | 153 kts | 83° |
| 2026-04-20 18:01 | 49.43258 | 7.57832 | 811 ft | 145 kts | 83° |
| 2026-04-20 18:01 | 49.43366 | 7.59144 | 782 ft | 89 kts | 83° |
| 2026-04-20 18:01 | 49.43421 | 7.59764 | 783 ft | 38 kts | 82° |
| 2026-04-20 18:02 | 49.43474 | 7.60060 | 781 ft | 15 kts | 30° |
| 2026-04-20 18:02 | 49.43530 | 7.60047 | 783 ft | 2 kts | 332° |
| 2026-04-20 18:02 | 49.43588 | 7.59997 | 784 ft | 26 kts | 330° |
| 2026-04-20 18:02 | 49.43850 | 7.59767 | 784 ft | 55 kts | 329° |
| 2026-04-20 18:03 | 49.44069 | 7.59525 | 782 ft | 14 kts | 295° |
| 2026-04-20 18:03 | 49.44069 | 7.59400 | 782 ft | 13 kts | 268° |
| 2026-04-20 18:03 | 49.44069 | 7.59380 | 782 ft | 0 kts | 268° |